AAL228C KEWR-KCLT
Flight info
| Callsign | AAL228C |
|---|---|
| Flight time | 1h 19m |
| Altitude | 30000 |
| Route | BIGGY Q75 GVE AIROW CHSLY6 |
| Aircraft | A20N/M-SDE2E3FGHIRWXY/LB1 |
Departure
| Time | 2026-04-26 21:12 |
|---|---|
| Airport | Newark Liberty International Airport (KEWR) |
Arrival
| Time | 2026-04-26 22:31 |
|---|---|
| Airport | Charlotte Douglas International Airport (KCLT) |
| Time | Latitude | Longitude | Altitude | Speed | Heading |
|---|---|---|---|---|---|
| 2026-04-26 20:45 | 40.68303 | -74.18411 | 22 ft | 0 kts | 5° |
| 2026-04-26 20:53 | 40.68302 | -74.18411 | 22 ft | 1 kts | 5° |
| 2026-04-26 20:54 | 40.68278 | -74.18414 | 25 ft | 4 kts | 8° |
| 2026-04-26 20:54 | 40.68251 | -74.18420 | 24 ft | 4 kts | 12° |
| 2026-04-26 20:54 | 40.68225 | -74.18428 | 24 ft | 4 kts | 19° |
| 2026-04-26 20:54 | 40.68201 | -74.18443 | 22 ft | 4 kts | 46° |
| 2026-04-26 20:55 | 40.68193 | -74.18461 | 26 ft | 0 kts | 95° |
| 2026-04-26 21:04 | 40.68191 | -74.18438 | 24 ft | 6 kts | 94° |
| 2026-04-26 21:04 | 40.68186 | -74.18359 | 24 ft | 11 kts | 94° |
| 2026-04-26 21:04 | 40.68180 | -74.18249 | 22 ft | 13 kts | 94° |
| 2026-04-26 21:04 | 40.68172 | -74.18119 | 24 ft | 14 kts | 95° |
| 2026-04-26 21:05 | 40.68170 | -74.18093 | 23 ft | 0 kts | 95° |
| 2026-04-26 21:09 | 40.68168 | -74.18054 | 23 ft | 10 kts | 95° |
| 2026-04-26 21:09 | 40.68136 | -74.17953 | 23 ft | 14 kts | 136° |
| 2026-04-26 21:09 | 40.68062 | -74.17848 | 22 ft | 17 kts | 118° |
| 2026-04-26 21:10 | 40.68023 | -74.17738 | 21 ft | 6 kts | 115° |
| 2026-04-26 21:10 | 40.68022 | -74.17734 | 21 ft | 0 kts | 115° |
| 2026-04-26 21:10 | 40.68020 | -74.17730 | 21 ft | 3 kts | 115° |
| 2026-04-26 21:10 | 40.68009 | -74.17671 | 20 ft | 9 kts | 82° |
| 2026-04-26 21:11 | 40.68049 | -74.17624 | 21 ft | 9 kts | 25° |
| 2026-04-26 21:11 | 40.68113 | -74.17584 | 21 ft | 11 kts | 26° |
| 2026-04-26 21:11 | 40.68194 | -74.17531 | 21 ft | 18 kts | 26° |
| 2026-04-26 21:11 | 40.68517 | -74.17322 | 27 ft | 85 kts | 27° |
| 2026-04-26 21:12 | 40.69224 | -74.16871 | 23 ft | 138 kts | 25° |
| 2026-04-26 21:12 | 40.70212 | -74.16245 | 135 ft | 172 kts | 29° |
| 2026-04-26 21:12 | 40.71178 | -74.15288 | 730 ft | 179 kts | 47° |
| 2026-04-26 21:12 | 40.71983 | -74.14108 | 1743 ft | 166 kts | 51° |
| 2026-04-26 21:13 | 40.72725 | -74.13006 | 2579 ft | 155 kts | 46° |
| 2026-04-26 21:13 | 40.73505 | -74.11963 | 3126 ft | 168 kts | 44° |
| 2026-04-26 21:13 | 40.74402 | -74.10848 | 3577 ft | 187 kts | 42° |
| 2026-04-26 21:13 | 40.75416 | -74.09634 | 4089 ft | 205 kts | 41° |
| 2026-04-26 21:14 | 40.76690 | -74.08644 | 4690 ft | 225 kts | 11° |
| 2026-04-26 21:14 | 40.78244 | -74.08976 | 5509 ft | 238 kts | 333° |
| 2026-04-26 21:14 | 40.79365 | -74.10576 | 6370 ft | 251 kts | 297° |
| 2026-04-26 21:14 | 40.79821 | -74.12835 | 7241 ft | 258 kts | 282° |
| 2026-04-26 21:15 | 40.80029 | -74.15190 | 8156 ft | 259 kts | 278° |
| 2026-04-26 21:15 | 40.80177 | -74.17570 | 9072 ft | 261 kts | 277° |
| 2026-04-26 21:15 | 40.80309 | -74.19972 | 9935 ft | 267 kts | 277° |
| 2026-04-26 21:15 | 40.80449 | -74.22514 | 10337 ft | 289 kts | 277° |
| 2026-04-26 21:16 | 40.80571 | -74.25264 | 10739 ft | 313 kts | 271° |
| 2026-04-26 21:16 | 40.80056 | -74.28170 | 11119 ft | 340 kts | 248° |
| 2026-04-26 21:16 | 40.78815 | -74.30836 | 11865 ft | 349 kts | 238° |
| 2026-04-26 21:16 | 40.77340 | -74.33400 | 12756 ft | 353 kts | 236° |
| 2026-04-26 21:17 | 40.75821 | -74.35967 | 13580 ft | 357 kts | 237° |
| 2026-04-26 21:17 | 40.74311 | -74.38581 | 14372 ft | 360 kts | 238° |
| 2026-04-26 21:17 | 40.72813 | -74.41246 | 15081 ft | 364 kts | 238° |
| 2026-04-26 21:17 | 40.71317 | -74.43958 | 15803 ft | 368 kts | 239° |
| 2026-04-26 21:18 | 40.69810 | -74.46708 | 16501 ft | 372 kts | 239° |
| 2026-04-26 21:18 | 40.68311 | -74.49453 | 17197 ft | 376 kts | 239° |
| 2026-04-26 21:18 | 40.66775 | -74.52262 | 17850 ft | 380 kts | 239° |
| 2026-04-26 21:18 | 40.65219 | -74.55104 | 18522 ft | 385 kts | 239° |
| 2026-04-26 21:19 | 40.63648 | -74.57969 | 19153 ft | 387 kts | 239° |
| 2026-04-26 21:19 | 40.62065 | -74.60851 | 19796 ft | 390 kts | 239° |
| 2026-04-26 21:19 | 40.60470 | -74.63755 | 20419 ft | 392 kts | 239° |
| 2026-04-26 21:19 | 40.58865 | -74.66673 | 21034 ft | 396 kts | 239° |
| 2026-04-26 21:20 | 40.57253 | -74.69602 | 21645 ft | 398 kts | 239° |
| 2026-04-26 21:20 | 40.55620 | -74.72568 | 22141 ft | 402 kts | 239° |
| 2026-04-26 21:20 | 40.53998 | -74.75514 | 22537 ft | 403 kts | 239° |
| 2026-04-26 21:20 | 40.52348 | -74.78507 | 22936 ft | 406 kts | 239° |
| 2026-04-26 21:21 | 40.50686 | -74.81517 | 23342 ft | 408 kts | 239° |
| 2026-04-26 21:21 | 40.49017 | -74.84535 | 23747 ft | 410 kts | 239° |
| 2026-04-26 21:21 | 40.47337 | -74.87569 | 24104 ft | 412 kts | 239° |
| 2026-04-26 21:21 | 40.45648 | -74.90616 | 24451 ft | 413 kts | 239° |
| 2026-04-26 21:22 | 40.43953 | -74.93672 | 24806 ft | 415 kts | 239° |
| 2026-04-26 21:22 | 40.42235 | -74.96728 | 25162 ft | 418 kts | 237° |
| 2026-04-26 21:22 | 40.40300 | -74.99619 | 25520 ft | 424 kts | 232° |
| 2026-04-26 21:23 | 40.36276 | -75.05251 | 26259 ft | 428 kts | 232° |
| 2026-04-26 21:23 | 40.34241 | -75.08107 | 26637 ft | 430 kts | 232° |
| 2026-04-26 21:23 | 40.32238 | -75.10916 | 27008 ft | 432 kts | 232° |
| 2026-04-26 21:23 | 40.30138 | -75.13861 | 27409 ft | 434 kts | 232° |
| 2026-04-26 21:24 | 40.28069 | -75.16758 | 27800 ft | 437 kts | 232° |
| 2026-04-26 21:24 | 40.25990 | -75.19666 | 28194 ft | 439 kts | 232° |
| 2026-04-26 21:24 | 40.23899 | -75.22586 | 28585 ft | 441 kts | 232° |
| 2026-04-26 21:24 | 40.21822 | -75.25485 | 28857 ft | 443 kts | 232° |
| 2026-04-26 21:25 | 40.19712 | -75.28428 | 29130 ft | 445 kts | 232° |
| 2026-04-26 21:25 | 40.17591 | -75.31382 | 29409 ft | 446 kts | 232° |
| 2026-04-26 21:25 | 40.15484 | -75.34316 | 29679 ft | 448 kts | 232° |
| 2026-04-26 21:25 | 40.13344 | -75.37292 | 29957 ft | 450 kts | 232° |
| 2026-04-26 21:26 | 40.11193 | -75.40279 | 30149 ft | 452 kts | 232° |
| 2026-04-26 21:26 | 40.09039 | -75.43269 | 30172 ft | 452 kts | 232° |
| 2026-04-26 21:26 | 40.04722 | -75.49247 | 30181 ft | 452 kts | 232° |
| 2026-04-26 21:27 | 40.00439 | -75.55169 | 30188 ft | 452 kts | 232° |
| 2026-04-26 21:27 | 39.96122 | -75.61129 | 30182 ft | 452 kts | 231° |
| 2026-04-26 21:28 | 39.91810 | -75.67095 | 30176 ft | 451 kts | 233° |
| 2026-04-26 21:28 | 39.87855 | -75.73393 | 30177 ft | 449 kts | 236° |
| 2026-04-26 21:29 | 39.83945 | -75.79656 | 30168 ft | 449 kts | 236° |
| 2026-04-26 21:29 | 39.79995 | -75.85960 | 30170 ft | 449 kts | 235° |
| 2026-04-26 21:30 | 39.76043 | -75.92254 | 30171 ft | 449 kts | 235° |
| 2026-04-26 21:30 | 39.72085 | -75.98544 | 30169 ft | 450 kts | 235° |
| 2026-04-26 21:31 | 39.68124 | -76.04826 | 30179 ft | 450 kts | 235° |
| 2026-04-26 21:31 | 39.64192 | -76.11050 | 30173 ft | 450 kts | 235° |
| 2026-04-26 21:32 | 39.60231 | -76.17307 | 30182 ft | 450 kts | 235° |
| 2026-04-26 21:32 | 39.56213 | -76.23536 | 30182 ft | 451 kts | 234° |
| 2026-04-26 21:33 | 39.52160 | -76.29742 | 30184 ft | 451 kts | 234° |
| 2026-04-26 21:33 | 39.48108 | -76.35951 | 30186 ft | 451 kts | 234° |
| 2026-04-26 21:34 | 39.43867 | -76.41894 | 30196 ft | 454 kts | 229° |
| 2026-04-26 21:34 | 39.39422 | -76.47705 | 30190 ft | 454 kts | 229° |
| 2026-04-26 21:35 | 39.34977 | -76.53514 | 30191 ft | 454 kts | 229° |
| 2026-04-26 21:35 | 39.30546 | -76.59296 | 30188 ft | 455 kts | 229° |
| 2026-04-26 21:36 | 39.26849 | -76.64111 | 30164 ft | 455 kts | 229° |
| 2026-04-26 21:36 | 39.21671 | -76.70841 | 30166 ft | 455 kts | 229° |
| 2026-04-26 21:37 | 39.17212 | -76.76625 | 30166 ft | 455 kts | 229° |
| 2026-04-26 21:37 | 39.12750 | -76.82402 | 30208 ft | 454 kts | 228° |
| 2026-04-26 21:38 | 39.08288 | -76.88167 | 30209 ft | 454 kts | 228° |
| 2026-04-26 21:38 | 39.03847 | -76.93895 | 30176 ft | 461 kts | 228° |
| 2026-04-26 21:39 | 38.99233 | -76.99835 | 30181 ft | 474 kts | 228° |
| 2026-04-26 21:39 | 38.94594 | -77.05807 | 30164 ft | 473 kts | 228° |
| 2026-04-26 21:40 | 38.89941 | -77.11787 | 30166 ft | 473 kts | 227° |
| 2026-04-26 21:40 | 38.85286 | -77.17756 | 30166 ft | 473 kts | 227° |
| 2026-04-26 21:41 | 38.80658 | -77.23680 | 30148 ft | 473 kts | 227° |
| 2026-04-26 21:41 | 38.75997 | -77.29634 | 30149 ft | 473 kts | 227° |
| 2026-04-26 21:42 | 38.71310 | -77.35547 | 30174 ft | 474 kts | 225° |
| 2026-04-26 21:42 | 38.66397 | -77.41181 | 30181 ft | 474 kts | 224° |
| 2026-04-26 21:43 | 38.61508 | -77.46746 | 30175 ft | 474 kts | 224° |
| 2026-04-26 21:43 | 38.56610 | -77.52371 | 30185 ft | 473 kts | 224° |
| 2026-04-26 21:44 | 38.51726 | -77.57989 | 30181 ft | 472 kts | 224° |
| 2026-04-26 21:44 | 38.46840 | -77.63599 | 30187 ft | 472 kts | 224° |
| 2026-04-26 21:45 | 38.41953 | -77.69199 | 30183 ft | 472 kts | 224° |
| 2026-04-26 21:45 | 38.37101 | -77.74748 | 30189 ft | 472 kts | 224° |
| 2026-04-26 21:46 | 38.32217 | -77.80323 | 30185 ft | 472 kts | 224° |
| 2026-04-26 21:46 | 38.27342 | -77.85871 | 30175 ft | 472 kts | 224° |
| 2026-04-26 21:47 | 38.22451 | -77.91428 | 30176 ft | 472 kts | 224° |
| 2026-04-26 21:47 | 38.17556 | -77.96984 | 30176 ft | 472 kts | 224° |
| 2026-04-26 21:48 | 38.12690 | -78.02498 | 30169 ft | 472 kts | 224° |
| 2026-04-26 21:48 | 38.07790 | -78.08038 | 30170 ft | 472 kts | 224° |
| 2026-04-26 21:49 | 38.02881 | -78.13579 | 30165 ft | 472 kts | 224° |
| 2026-04-26 21:49 | 37.98347 | -78.19562 | 30161 ft | 470 kts | 231° |
| 2026-04-26 21:50 | 37.94745 | -78.24717 | 30154 ft | 471 kts | 231° |
| 2026-04-26 21:50 | 37.89728 | -78.31865 | 30142 ft | 471 kts | 231° |
| 2026-04-26 21:51 | 37.85363 | -78.38063 | 30140 ft | 472 kts | 231° |
| 2026-04-26 21:51 | 37.80989 | -78.44258 | 30133 ft | 472 kts | 231° |
| 2026-04-26 21:52 | 37.76636 | -78.50414 | 30125 ft | 473 kts | 231° |
| 2026-04-26 21:52 | 37.72251 | -78.56602 | 30126 ft | 473 kts | 231° |
| 2026-04-26 21:53 | 37.67858 | -78.62789 | 30122 ft | 473 kts | 231° |
| 2026-04-26 21:53 | 37.63457 | -78.68976 | 30125 ft | 474 kts | 231° |
| 2026-04-26 21:54 | 37.59053 | -78.75157 | 30123 ft | 474 kts | 230° |
| 2026-04-26 21:54 | 37.54672 | -78.81292 | 30120 ft | 474 kts | 230° |
| 2026-04-26 21:55 | 37.50256 | -78.87465 | 30118 ft | 474 kts | 230° |
| 2026-04-26 21:55 | 37.45836 | -78.93631 | 30117 ft | 474 kts | 230° |
| 2026-04-26 21:56 | 37.41416 | -78.99787 | 30119 ft | 474 kts | 230° |
| 2026-04-26 21:56 | 37.37036 | -79.05872 | 30120 ft | 463 kts | 230° |
| 2026-04-26 21:57 | 37.34906 | -79.08823 | 30121 ft | 449 kts | 230° |
| 2026-04-26 21:57 | 37.32804 | -79.11739 | 30120 ft | 453 kts | 230° |
| 2026-04-26 21:57 | 37.28557 | -79.17627 | 30119 ft | 455 kts | 230° |
| 2026-04-26 21:58 | 37.24150 | -79.23329 | 30124 ft | 457 kts | 223° |
| 2026-04-26 21:58 | 37.19028 | -79.28096 | 30116 ft | 459 kts | 218° |
| 2026-04-26 21:59 | 37.13878 | -79.32729 | 30110 ft | 459 kts | 218° |
| 2026-04-26 21:59 | 37.08694 | -79.37395 | 30101 ft | 459 kts | 218° |
| 2026-04-26 22:00 | 37.03508 | -79.42054 | 30098 ft | 460 kts | 218° |
| 2026-04-26 22:00 | 36.98277 | -79.46648 | 30094 ft | 459 kts | 216° |
| 2026-04-26 22:01 | 36.93006 | -79.51053 | 30088 ft | 459 kts | 216° |
| 2026-04-26 22:01 | 36.87700 | -79.55501 | 30083 ft | 459 kts | 216° |
| 2026-04-26 22:02 | 36.83301 | -79.59201 | 30087 ft | 459 kts | 216° |
| 2026-04-26 22:02 | 36.77117 | -79.64398 | 30084 ft | 458 kts | 216° |
| 2026-04-26 22:03 | 36.71822 | -79.68832 | 30096 ft | 458 kts | 216° |
| 2026-04-26 22:03 | 36.66564 | -79.73230 | 30109 ft | 458 kts | 216° |
| 2026-04-26 22:04 | 36.61271 | -79.77649 | 30101 ft | 458 kts | 216° |
| 2026-04-26 22:04 | 36.55978 | -79.82061 | 30112 ft | 458 kts | 216° |
| 2026-04-26 22:05 | 36.50684 | -79.86466 | 30114 ft | 457 kts | 216° |
| 2026-04-26 22:05 | 36.48049 | -79.88655 | 29751 ft | 455 kts | 216° |
| 2026-04-26 22:05 | 36.45447 | -79.90816 | 28925 ft | 457 kts | 215° |
| 2026-04-26 22:06 | 36.42789 | -79.93022 | 27922 ft | 461 kts | 215° |
| 2026-04-26 22:06 | 36.40144 | -79.95214 | 27536 ft | 450 kts | 215° |
| 2026-04-26 22:06 | 36.37580 | -79.97334 | 27353 ft | 435 kts | 215° |
| 2026-04-26 22:06 | 36.35108 | -79.99377 | 27196 ft | 420 kts | 216° |
| 2026-04-26 22:07 | 36.32717 | -80.01353 | 27046 ft | 406 kts | 216° |
| 2026-04-26 22:07 | 36.30413 | -80.03255 | 26906 ft | 392 kts | 216° |
| 2026-04-26 22:07 | 36.28169 | -80.05106 | 26568 ft | 384 kts | 216° |
| 2026-04-26 22:07 | 36.26699 | -80.06319 | 26243 ft | 383 kts | 216° |
| 2026-04-26 22:08 | 36.23773 | -80.08732 | 25593 ft | 380 kts | 216° |
| 2026-04-26 22:08 | 36.21581 | -80.10538 | 25147 ft | 377 kts | 216° |
| 2026-04-26 22:08 | 36.19400 | -80.12333 | 24683 ft | 375 kts | 216° |
| 2026-04-26 22:08 | 36.17242 | -80.14108 | 24320 ft | 370 kts | 216° |
| 2026-04-26 22:09 | 36.15111 | -80.15859 | 23971 ft | 365 kts | 216° |
| 2026-04-26 22:09 | 36.13007 | -80.17587 | 23604 ft | 361 kts | 216° |
| 2026-04-26 22:09 | 36.10915 | -80.19304 | 23231 ft | 361 kts | 216° |
| 2026-04-26 22:09 | 36.08824 | -80.21021 | 22894 ft | 361 kts | 216° |
| 2026-04-26 22:10 | 36.06734 | -80.22736 | 22546 ft | 360 kts | 216° |
| 2026-04-26 22:10 | 36.04682 | -80.24416 | 22206 ft | 357 kts | 216° |
| 2026-04-26 22:10 | 36.02616 | -80.26107 | 21859 ft | 356 kts | 215° |
| 2026-04-26 22:10 | 36.00576 | -80.27776 | 21534 ft | 355 kts | 215° |
| 2026-04-26 22:11 | 35.98519 | -80.29459 | 21199 ft | 354 kts | 215° |
| 2026-04-26 22:11 | 35.96472 | -80.31134 | 20862 ft | 352 kts | 215° |
| 2026-04-26 22:11 | 35.94434 | -80.32799 | 20530 ft | 351 kts | 215° |
| 2026-04-26 22:11 | 35.92398 | -80.34462 | 20204 ft | 350 kts | 214° |
| 2026-04-26 22:12 | 35.90369 | -80.36119 | 19869 ft | 349 kts | 214° |
| 2026-04-26 22:12 | 35.88346 | -80.37769 | 19534 ft | 348 kts | 214° |
| 2026-04-26 22:12 | 35.86352 | -80.39395 | 19210 ft | 347 kts | 214° |
| 2026-04-26 22:12 | 35.84340 | -80.41033 | 18880 ft | 346 kts | 213° |
| 2026-04-26 22:13 | 35.82337 | -80.42659 | 18546 ft | 344 kts | 213° |
| 2026-04-26 22:13 | 35.80333 | -80.44257 | 18200 ft | 342 kts | 212° |
| 2026-04-26 22:13 | 35.78337 | -80.45831 | 17870 ft | 339 kts | 212° |
| 2026-04-26 22:13 | 35.76355 | -80.47391 | 17527 ft | 338 kts | 212° |
| 2026-04-26 22:14 | 35.74377 | -80.48950 | 17208 ft | 338 kts | 212° |
| 2026-04-26 22:14 | 35.72401 | -80.50511 | 16883 ft | 337 kts | 212° |
| 2026-04-26 22:14 | 35.70433 | -80.52066 | 16562 ft | 335 kts | 212° |
| 2026-04-26 22:14 | 35.68481 | -80.53608 | 16246 ft | 333 kts | 212° |
| 2026-04-26 22:15 | 35.66541 | -80.55101 | 15933 ft | 331 kts | 211° |
| 2026-04-26 22:15 | 35.64614 | -80.56557 | 15620 ft | 329 kts | 211° |
| 2026-04-26 22:15 | 35.62664 | -80.58025 | 15307 ft | 328 kts | 211° |
| 2026-04-26 22:15 | 35.60724 | -80.59488 | 15004 ft | 327 kts | 211° |
| 2026-04-26 22:16 | 35.58788 | -80.60951 | 14683 ft | 325 kts | 211° |
| 2026-04-26 22:16 | 35.56869 | -80.62403 | 14369 ft | 323 kts | 211° |
| 2026-04-26 22:16 | 35.54967 | -80.63843 | 14060 ft | 321 kts | 211° |
| 2026-04-26 22:16 | 35.53061 | -80.65281 | 13751 ft | 321 kts | 210° |
| 2026-04-26 22:17 | 35.51157 | -80.66702 | 13438 ft | 318 kts | 210° |
| 2026-04-26 22:17 | 35.49299 | -80.68083 | 13139 ft | 315 kts | 210° |
| 2026-04-26 22:17 | 35.47425 | -80.69475 | 12842 ft | 315 kts | 210° |
| 2026-04-26 22:17 | 35.45551 | -80.70868 | 12540 ft | 315 kts | 210° |
| 2026-04-26 22:18 | 35.43686 | -80.72256 | 12240 ft | 313 kts | 210° |
| 2026-04-26 22:18 | 35.41830 | -80.73636 | 11949 ft | 310 kts | 210° |
| 2026-04-26 22:18 | 35.39996 | -80.75001 | 11685 ft | 308 kts | 210° |
| 2026-04-26 22:18 | 35.38187 | -80.76345 | 11573 ft | 299 kts | 210° |
| 2026-04-26 22:19 | 35.36439 | -80.77643 | 11479 ft | 288 kts | 210° |
| 2026-04-26 22:19 | 35.34763 | -80.78888 | 11384 ft | 276 kts | 210° |
| 2026-04-26 22:19 | 35.33178 | -80.80065 | 11258 ft | 266 kts | 210° |
| 2026-04-26 22:19 | 35.31604 | -80.81231 | 11003 ft | 263 kts | 210° |
| 2026-04-26 22:20 | 35.30062 | -80.82372 | 10679 ft | 262 kts | 210° |
| 2026-04-26 22:20 | 35.28997 | -80.83116 | 10458 ft | 259 kts | 202° |
| 2026-04-26 22:20 | 35.26678 | -80.83645 | 9899 ft | 260 kts | 174° |
| 2026-04-26 22:20 | 35.24858 | -80.83472 | 9390 ft | 265 kts | 174° |
| 2026-04-26 22:21 | 35.22999 | -80.83297 | 8875 ft | 271 kts | 175° |
| 2026-04-26 22:21 | 35.21103 | -80.83128 | 8373 ft | 275 kts | 175° |
| 2026-04-26 22:21 | 35.19179 | -80.82963 | 7877 ft | 279 kts | 176° |
| 2026-04-26 22:21 | 35.17227 | -80.82798 | 7392 ft | 283 kts | 176° |
| 2026-04-26 22:22 | 35.15254 | -80.82634 | 6912 ft | 286 kts | 177° |
| 2026-04-26 22:22 | 35.13285 | -80.82469 | 6445 ft | 289 kts | 177° |
| 2026-04-26 22:22 | 35.11271 | -80.82303 | 6026 ft | 289 kts | 177° |
| 2026-04-26 22:22 | 35.09291 | -80.82140 | 5758 ft | 282 kts | 177° |
| 2026-04-26 22:23 | 35.07336 | -80.81979 | 5398 ft | 280 kts | 176° |
| 2026-04-26 22:23 | 35.05396 | -80.81816 | 5024 ft | 279 kts | 176° |
| 2026-04-26 22:23 | 35.03468 | -80.81655 | 4650 ft | 277 kts | 176° |
| 2026-04-26 22:23 | 35.01551 | -80.81496 | 4279 ft | 276 kts | 175° |
| 2026-04-26 22:24 | 35.00290 | -80.81391 | 4097 ft | 272 kts | 175° |
| 2026-04-26 22:24 | 34.98443 | -80.81369 | 4002 ft | 260 kts | 191° |
| 2026-04-26 22:24 | 34.96864 | -80.82237 | 3996 ft | 243 kts | 221° |
| 2026-04-26 22:24 | 34.95816 | -80.84424 | 3990 ft | 218 kts | 265° |
| 2026-04-26 22:25 | 34.96023 | -80.86126 | 3985 ft | 195 kts | 302° |
| 2026-04-26 22:25 | 34.96919 | -80.87339 | 3995 ft | 197 kts | 321° |
| 2026-04-26 22:25 | 34.97958 | -80.88409 | 3992 ft | 194 kts | 322° |
| 2026-04-26 22:25 | 34.98996 | -80.89466 | 3991 ft | 196 kts | 322° |
| 2026-04-26 22:26 | 34.99684 | -80.90167 | 3970 ft | 193 kts | 322° |
| 2026-04-26 22:26 | 35.00692 | -80.91141 | 3968 ft | 177 kts | 329° |
| 2026-04-26 22:26 | 35.01767 | -80.91717 | 3877 ft | 163 kts | 347° |
| 2026-04-26 22:26 | 35.02843 | -80.91934 | 3795 ft | 151 kts | 356° |
| 2026-04-26 22:27 | 35.03864 | -80.92020 | 3641 ft | 144 kts | 358° |
| 2026-04-26 22:27 | 35.04834 | -80.92100 | 3593 ft | 142 kts | 357° |
| 2026-04-26 22:27 | 35.05862 | -80.92188 | 3493 ft | 149 kts | 357° |
| 2026-04-26 22:27 | 35.06886 | -80.92277 | 3339 ft | 146 kts | 358° |
| 2026-04-26 22:28 | 35.07896 | -80.92363 | 3172 ft | 145 kts | 358° |
| 2026-04-26 22:28 | 35.08904 | -80.92450 | 2993 ft | 145 kts | 357° |
| 2026-04-26 22:28 | 35.09908 | -80.92536 | 2813 ft | 144 kts | 356° |
| 2026-04-26 22:28 | 35.10893 | -80.92621 | 2613 ft | 144 kts | 356° |
| 2026-04-26 22:29 | 35.11889 | -80.92706 | 2436 ft | 143 kts | 357° |
| 2026-04-26 22:29 | 35.12871 | -80.92790 | 2242 ft | 140 kts | 356° |
| 2026-04-26 22:29 | 35.13847 | -80.92875 | 2066 ft | 142 kts | 357° |
| 2026-04-26 22:29 | 35.14829 | -80.92958 | 1876 ft | 142 kts | 357° |
| 2026-04-26 22:30 | 35.15811 | -80.93044 | 1658 ft | 142 kts | 357° |
| 2026-04-26 22:30 | 35.16803 | -80.93130 | 1454 ft | 143 kts | 359° |
| 2026-04-26 22:30 | 35.17783 | -80.93214 | 1241 ft | 136 kts | 360° |
| 2026-04-26 22:30 | 35.18748 | -80.93295 | 1061 ft | 146 kts | 1° |
| 2026-04-26 22:31 | 35.19756 | -80.93384 | 842 ft | 143 kts | 360° |
| 2026-04-26 22:31 | 35.20705 | -80.93462 | 736 ft | 122 kts | 354° |
| 2026-04-26 22:31 | 35.21349 | -80.93520 | 733 ft | 64 kts | 355° |
| 2026-04-26 22:31 | 35.21701 | -80.93550 | 735 ft | 40 kts | 355° |
| 2026-04-26 22:32 | 35.21875 | -80.93567 | 736 ft | 12 kts | 355° |
| 2026-04-26 22:32 | 35.21988 | -80.93579 | 736 ft | 19 kts | 345° |
| 2026-04-26 22:32 | 35.22015 | -80.93646 | 734 ft | 0 kts | 257° |
| 2026-04-26 22:33 | 35.22003 | -80.93674 | 731 ft | 8 kts | 235° |
| 2026-04-26 22:33 | 35.21948 | -80.93748 | 732 ft | 14 kts | 228° |
| 2026-04-26 22:34 | 35.21875 | -80.93848 | 732 ft | 13 kts | 229° |
| 2026-04-26 22:34 | 35.21840 | -80.93898 | 731 ft | 9 kts | 229° |
| 2026-04-26 22:34 | 35.21789 | -80.93969 | 732 ft | 4 kts | 228° |
| 2026-04-26 22:34 | 35.21777 | -80.93985 | 731 ft | 8 kts | 228° |
| 2026-04-26 22:35 | 35.21744 | -80.94035 | 730 ft | 2 kts | 253° |
| 2026-04-26 22:35 | 35.21758 | -80.94056 | 732 ft | 5 kts | 321° |
| 2026-04-26 22:35 | 35.21781 | -80.94087 | 732 ft | 4 kts | 295° |
| 2026-04-26 22:35 | 35.21783 | -80.94092 | 732 ft | 0 kts | 286° |
| 2026-04-26 22:36 | 35.21785 | -80.94115 | 732 ft | 2 kts | 278° |
| 2026-04-26 22:36 | 35.21789 | -80.94135 | 732 ft | 3 kts | 283° |
| 2026-04-26 22:36 | 35.21792 | -80.94149 | 732 ft | 1 kts | 284° |
| 2026-04-26 22:36 | 35.21792 | -80.94153 | 732 ft | 0 kts | 284° |